createdAt,value
2023-05-10T00:01:48.810Z,77.30
2023-05-10T00:04:16.169Z,77.15
2023-05-10T00:06:43.262Z,77.01
2023-05-10T00:09:11.477Z,77.52
2023-05-10T00:11:38.646Z,77.79
2023-05-10T00:14:05.959Z,77.75
2023-05-10T00:16:33.216Z,77.72
2023-05-10T00:19:00.438Z,77.34
2023-05-10T00:21:29.321Z,77.94
2023-05-10T00:23:56.378Z,78.10
2023-05-10T00:26:25.763Z,77.95
2023-05-10T00:28:55.792Z,78.14
2023-05-10T00:31:24.425Z,78.52
2023-05-10T00:34:10.532Z,78.93
2023-05-10T00:36:37.817Z,78.94
2023-05-10T00:39:04.957Z,78.93
2023-05-10T00:41:34.676Z,79.01
2023-05-10T00:44:03.227Z,79.14
2023-05-10T00:46:30.805Z,79.32
2023-05-10T00:49:02.520Z,78.59
2023-05-10T00:51:30.594Z,79.20
2023-05-10T00:53:57.992Z,79.56
2023-05-10T00:56:27.951Z,79.72
2023-05-10T00:58:58.560Z,79.29
2023-05-10T01:01:26.624Z,79.54
2023-05-10T01:03:54.393Z,79.46
2023-05-10T01:06:22.605Z,79.67
2023-05-10T01:08:49.758Z,79.85
2023-05-10T01:11:17.050Z,80.00
2023-05-10T01:13:48.941Z,79.85
2023-05-10T01:16:16.453Z,80.10
2023-05-10T01:18:45.757Z,79.92
2023-05-10T01:22:01.045Z,80.14
2023-05-10T01:25:04.611Z,80.10
2023-05-10T01:28:08.569Z,80.80
2023-05-10T01:31:24.618Z,80.77
2023-05-10T01:33:51.598Z,80.35
2023-05-10T01:36:34.931Z,80.41
2023-05-10T01:39:18.675Z,81.12
2023-05-10T01:42:09.242Z,81.09
2023-05-10T01:44:52.702Z,81.57
2023-05-10T01:47:34.702Z,81.63
2023-05-10T01:50:06.396Z,81.65
2023-05-10T01:52:39.951Z,81.54
2023-05-10T01:55:15.074Z,81.46
2023-05-10T01:57:47.618Z,81.93
2023-05-10T02:00:17.565Z,81.64
2023-05-10T02:02:51.126Z,81.31
2023-05-10T02:05:24.191Z,81.04
2023-05-10T02:07:53.622Z,81.94
2023-05-10T02:10:21.833Z,81.64
2023-05-10T02:12:50.533Z,81.31
2023-05-10T02:15:24.216Z,81.92
2023-05-10T02:17:55.837Z,82.21
2023-05-10T02:20:24.588Z,81.80
2023-05-10T02:22:55.602Z,82.12
2023-05-10T02:25:24.854Z,82.64
2023-05-10T02:27:56.617Z,82.48
2023-05-10T02:30:25.145Z,82.49
2023-05-10T02:32:53.483Z,82.67
2023-05-10T02:35:22.234Z,81.56
2023-05-10T02:37:49.987Z,83.08
2023-05-10T02:40:19.061Z,83.25
2023-05-10T02:42:48.868Z,82.89
2023-05-10T02:45:25.190Z,83.66
2023-05-10T02:47:52.538Z,82.78
2023-05-10T02:50:23.548Z,82.64
2023-05-10T02:52:53.638Z,82.62
2023-05-10T02:55:27.265Z,81.99
2023-05-10T02:58:00.993Z,82.75
2023-05-10T03:00:30.833Z,82.64
2023-05-10T03:02:59.752Z,82.92
2023-05-10T03:05:28.320Z,82.54
2023-05-10T03:07:58.975Z,82.51
2023-05-10T03:10:30.925Z,82.47
2023-05-10T03:13:27.672Z,82.80
2023-05-10T03:16:10.896Z,82.30
2023-05-10T03:18:50.623Z,82.06
2023-05-10T03:21:19.950Z,82.32
2023-05-10T03:23:58.696Z,82.40
2023-05-10T03:26:29.282Z,81.82
2023-05-10T03:29:14.024Z,82.29
2023-05-10T03:31:47.924Z,82.23
2023-05-10T03:34:18.652Z,82.78
2023-05-10T03:36:45.946Z,82.25
2023-05-10T03:39:13.301Z,82.40
2023-05-10T03:41:44.229Z,82.78
2023-05-10T03:44:11.725Z,82.70
2023-05-10T03:46:47.878Z,82.14
2023-05-10T03:49:15.085Z,81.93
2023-05-10T03:51:43.104Z,81.88
2023-05-10T03:54:13.650Z,81.21
2023-05-10T03:56:42.090Z,81.19
2023-05-10T03:59:10.127Z,80.95
2023-05-10T04:01:37.225Z,81.04
2023-05-10T04:04:04.677Z,81.16
2023-05-10T04:06:33.049Z,80.33
2023-05-10T04:09:02.068Z,80.48
2023-05-10T04:11:29.177Z,80.27
2023-05-10T04:13:58.778Z,79.85
2023-05-10T04:16:26.125Z,80.13
2023-05-10T04:18:53.369Z,80.15
2023-05-10T04:21:21.508Z,79.79
2023-05-10T04:23:55.216Z,80.32
2023-05-10T04:26:23.793Z,79.58
2023-05-10T04:28:50.902Z,80.22
2023-05-10T04:31:18.411Z,80.00
2023-05-10T04:33:48.729Z,80.54
2023-05-10T04:36:15.908Z,79.87
2023-05-10T04:38:43.795Z,80.58
2023-05-10T04:41:13.753Z,80.54
2023-05-10T04:43:42.156Z,80.22
2023-05-10T04:46:10.849Z,80.20
2023-05-10T04:48:38.280Z,79.85
2023-05-10T04:51:07.681Z,80.42
2023-05-10T04:53:35.551Z,80.75
2023-05-10T04:56:03.757Z,80.38
2023-05-10T04:58:36.019Z,79.71
2023-05-10T05:01:10.622Z,79.79
2023-05-10T05:03:38.683Z,80.44
2023-05-10T05:06:09.856Z,80.54
2023-05-10T05:08:36.958Z,80.31
2023-05-10T05:11:04.168Z,80.61
2023-05-10T05:13:32.119Z,80.42
2023-05-10T05:16:03.744Z,80.99
2023-05-10T05:18:30.831Z,80.44
2023-05-10T05:20:58.734Z,80.16
2023-05-10T05:23:25.913Z,80.27
2023-05-10T05:26:02.960Z,80.54
2023-05-10T05:28:33.859Z,80.37
2023-05-10T05:31:01.427Z,80.79
2023-05-10T05:33:28.892Z,80.88
2023-05-10T05:35:58.582Z,81.13
2023-05-10T05:38:25.782Z,80.74
2023-05-10T05:40:53.512Z,81.00
2023-05-10T05:43:21.330Z,80.97
2023-05-10T05:45:48.773Z,80.43
2023-05-10T05:48:16.138Z,80.37
2023-05-10T05:50:43.968Z,81.00
2023-05-10T05:53:11.995Z,80.86
2023-05-10T05:55:39.483Z,81.19
2023-05-10T05:58:07.494Z,81.07
2023-05-10T06:00:35.436Z,81.43
2023-05-10T06:03:03.252Z,81.08
2023-05-10T06:05:37.296Z,81.40
2023-05-10T06:08:05.107Z,80.70
2023-05-10T06:10:32.218Z,81.40
2023-05-10T06:12:59.431Z,81.21
2023-05-10T06:15:27.834Z,81.66
2023-05-10T06:17:55.152Z,81.24
2023-05-10T06:20:22.454Z,81.48
2023-05-10T06:22:50.128Z,80.43
2023-05-10T06:25:22.377Z,80.63
2023-05-10T06:27:53.495Z,80.72
2023-05-10T06:30:24.141Z,81.20
2023-05-10T06:33:02.081Z,80.60
2023-05-10T06:35:30.056Z,81.66
2023-05-10T06:37:59.384Z,82.10
2023-05-10T06:40:32.752Z,81.92
2023-05-10T06:42:59.998Z,81.27
2023-05-10T06:45:27.167Z,82.30
2023-05-10T06:51:54.999Z,81.93
2023-05-10T06:54:22.375Z,82.40
2023-05-10T06:57:15.999Z,82.10
2023-05-10T06:59:57.239Z,81.80
2023-05-10T07:02:24.512Z,81.04
2023-05-10T07:05:00.856Z,81.66
2023-05-10T07:07:30.214Z,81.93
2023-05-10T07:10:30.472Z,81.77
2023-05-10T07:13:26.283Z,81.65
2023-05-10T07:15:53.549Z,81.66
2023-05-10T07:18:23.162Z,81.66
2023-05-10T07:20:51.362Z,82.34
2023-05-10T07:23:19.032Z,82.50
2023-05-10T07:25:48.255Z,82.29
2023-05-10T07:28:17.272Z,82.33
2023-05-10T07:30:45.610Z,82.19
2023-05-10T07:33:15.332Z,82.72
2023-05-10T07:35:45.499Z,82.41
2023-05-10T07:38:17.589Z,82.82
2023-05-10T07:40:45.577Z,82.52
2023-05-10T07:43:12.765Z,82.49
2023-05-10T07:45:40.348Z,82.63
2023-05-10T07:48:09.528Z,82.41
2023-05-10T07:50:37.391Z,82.35
2023-05-10T07:53:04.655Z,82.25
2023-05-10T07:55:33.659Z,82.34
2023-05-10T07:58:04.457Z,82.38
2023-05-10T08:00:33.881Z,83.27
2023-05-10T08:03:01.661Z,83.08
2023-05-10T08:05:34.042Z,83.71
2023-05-10T08:08:06.154Z,83.70
2023-05-10T08:10:33.486Z,83.56
2023-05-10T08:13:00.772Z,83.45
2023-05-10T08:15:28.020Z,84.06
2023-05-10T08:17:55.673Z,84.13
2023-05-10T08:20:23.106Z,83.99
2023-05-10T08:22:53.668Z,84.14
2023-05-10T08:25:21.072Z,84.11
2023-05-10T08:27:49.452Z,83.90
2023-05-10T08:30:16.887Z,84.16
2023-05-10T08:32:44.152Z,84.04
2023-05-10T08:35:11.268Z,84.40
2023-05-10T08:37:39.588Z,84.00
2023-05-10T08:40:07.732Z,84.22
2023-05-10T08:42:38.977Z,84.35
2023-05-10T08:45:08.476Z,84.10
2023-05-10T08:47:39.956Z,83.97
2023-05-10T08:50:08.196Z,84.46
2023-05-10T08:52:41.326Z,84.50
2023-05-10T08:55:09.586Z,84.41
2023-05-10T08:57:42.211Z,84.22
2023-05-10T09:00:10.394Z,84.80
2023-05-10T09:02:44.556Z,84.53
2023-05-10T09:05:11.970Z,84.33
2023-05-10T09:07:39.221Z,84.33
2023-05-10T09:10:07.693Z,84.62
2023-05-10T09:12:35.053Z,84.31
2023-05-10T09:15:07.251Z,84.29
2023-05-10T09:17:35.160Z,84.23
2023-05-10T09:20:05.186Z,84.80
2023-05-10T09:22:35.699Z,84.41
2023-05-10T09:25:10.765Z,84.67
2023-05-10T09:27:42.667Z,85.24
2023-05-10T09:30:10.365Z,84.66
2023-05-10T09:32:43.155Z,84.79
2023-05-10T09:35:18.496Z,85.45
2023-05-10T09:37:54.829Z,85.67
2023-05-10T09:40:28.418Z,85.46
2023-05-10T09:43:00.165Z,85.35
2023-05-10T09:45:31.903Z,85.20
2023-05-10T09:48:01.544Z,84.96
2023-05-10T09:50:30.090Z,84.12
2023-05-10T09:53:08.920Z,84.16
2023-05-10T09:55:46.007Z,84.50
2023-05-10T09:58:15.240Z,84.25
2023-05-10T10:00:52.882Z,83.71
2023-05-10T10:03:22.416Z,84.24
2023-05-10T10:05:50.570Z,83.76
2023-05-10T10:08:18.939Z,84.33
2023-05-10T10:10:47.447Z,84.19
2023-05-10T10:13:16.139Z,84.32
2023-05-10T10:15:45.173Z,84.61
2023-05-10T10:18:16.582Z,85.05
2023-05-10T10:20:43.951Z,84.73
2023-05-10T10:23:11.598Z,85.25
2023-05-10T10:25:39.905Z,84.94
2023-05-10T10:28:49.103Z,85.11
2023-05-10T10:31:34.907Z,83.89
2023-05-10T10:34:08.263Z,84.01
2023-05-10T10:37:06.408Z,84.88
2023-05-10T10:39:34.149Z,84.71
2023-05-10T10:42:01.267Z,84.69
2023-05-10T10:44:41.651Z,84.77
2023-05-10T10:47:24.629Z,84.81
2023-05-10T10:50:06.676Z,84.50
2023-05-10T10:52:42.495Z,84.58
2023-05-10T10:55:27.554Z,84.56
2023-05-10T10:58:05.260Z,84.42
2023-05-10T11:00:37.176Z,84.38
2023-05-10T11:03:19.873Z,83.99
2023-05-10T11:05:49.170Z,84.12
2023-05-10T11:08:27.324Z,83.84
2023-05-10T11:11:00.623Z,84.62
2023-05-10T11:13:29.740Z,84.42
2023-05-10T11:15:58.412Z,83.54
2023-05-10T11:18:34.228Z,84.34
2023-05-10T11:21:07.071Z,84.72
2023-05-10T11:23:50.444Z,84.32
2023-05-10T11:26:19.142Z,84.41
2023-05-10T11:28:49.247Z,84.90
2023-05-10T11:31:18.524Z,84.79
2023-05-10T11:33:56.735Z,84.37
2023-05-10T11:36:34.888Z,84.91
2023-05-10T11:39:04.016Z,84.44
2023-05-10T11:41:32.315Z,84.66
2023-05-10T11:44:00.171Z,84.78
2023-05-10T11:46:29.509Z,84.58
2023-05-10T11:49:09.278Z,84.43
2023-05-10T11:51:46.351Z,85.12
2023-05-10T11:54:13.889Z,84.94
2023-05-10T11:56:42.221Z,85.25
2023-05-10T11:59:09.855Z,85.83
2023-05-10T12:01:37.772Z,85.27
2023-05-10T12:04:05.748Z,85.19
2023-05-10T12:06:41.792Z,85.47
2023-05-10T12:09:09.952Z,85.82
2023-05-10T12:11:44.279Z,85.69
2023-05-10T12:14:12.426Z,85.08
2023-05-10T12:16:40.078Z,84.43
2023-05-10T12:19:08.833Z,84.33
2023-05-10T12:21:58.184Z,84.74
2023-05-10T12:24:31.992Z,84.99
2023-05-10T12:27:10.752Z,83.59
2023-05-10T12:29:47.162Z,83.47
2023-05-10T12:32:16.280Z,83.82
2023-05-10T12:34:56.296Z,83.19
2023-05-10T12:37:29.387Z,83.49
2023-05-10T12:40:01.797Z,82.87
2023-05-10T12:42:28.913Z,83.58
2023-05-10T12:45:01.049Z,83.64
2023-05-10T12:47:30.803Z,83.82
2023-05-10T12:49:58.223Z,84.28
2023-05-10T12:52:27.196Z,83.86
2023-05-10T12:54:54.897Z,83.54
2023-05-10T12:57:22.862Z,83.74
2023-05-10T12:59:50.590Z,83.90
2023-05-10T13:02:22.151Z,83.80
2023-05-10T13:04:51.039Z,83.88
2023-05-10T13:07:21.701Z,84.09
2023-05-10T13:09:49.029Z,83.84
2023-05-10T13:24:12.420Z,83.36
2023-05-10T13:27:21.900Z,83.91
2023-05-10T13:30:13.184Z,83.83
2023-05-10T13:37:06.271Z,83.78
2023-05-10T13:39:48.843Z,83.20
2023-05-10T13:42:35.859Z,83.54
2023-05-10T13:49:44.188Z,83.53
2023-05-10T13:52:57.536Z,83.70
2023-05-10T13:56:32.936Z,83.79
2023-05-10T14:00:01.679Z,84.16
2023-05-10T14:07:13.119Z,84.10
2023-05-10T14:13:33.117Z,84.31
2023-05-10T14:16:21.750Z,84.13
2023-05-10T14:18:57.775Z,84.45
2023-05-10T14:21:24.931Z,84.84
2023-05-10T14:23:52.295Z,84.96
2023-05-10T14:26:19.458Z,85.49
2023-05-10T14:28:46.606Z,85.48
2023-05-10T14:31:13.869Z,85.43
2023-05-10T14:33:42.006Z,84.90
2023-05-10T14:36:09.848Z,84.97
2023-05-10T14:38:36.943Z,84.44
2023-05-10T14:41:04.169Z,84.66
2023-05-10T14:43:31.576Z,84.54
2023-05-10T14:45:59.133Z,85.06
2023-05-10T14:48:26.331Z,85.65
2023-05-10T14:50:53.720Z,84.60
2023-05-10T14:53:20.945Z,85.22
2023-05-10T14:55:48.431Z,85.11
2023-05-10T14:58:35.594Z,84.59
2023-05-10T15:01:33.801Z,83.82
2023-05-10T15:04:21.781Z,84.25
2023-05-10T15:06:51.869Z,84.36
2023-05-10T15:09:19.017Z,84.24
2023-05-10T15:11:46.299Z,84.52
2023-05-10T15:14:51.917Z,84.32
2023-05-10T15:18:43.114Z,84.06
2023-05-10T15:21:54.605Z,84.36
2023-05-10T15:25:02.535Z,83.97
2023-05-10T15:27:31.944Z,83.34
2023-05-10T15:30:00.525Z,83.92
2023-05-10T15:32:45.392Z,83.30
2023-05-10T15:35:55.287Z,82.61
2023-05-10T15:39:36.904Z,82.84
2023-05-10T15:42:49.874Z,83.21
2023-05-10T15:45:26.040Z,82.85
2023-05-10T15:52:07.330Z,83.24
2023-05-10T15:55:34.902Z,83.53
2023-05-10T15:58:17.408Z,83.51
2023-05-10T16:00:44.601Z,83.48
2023-05-10T16:03:12.017Z,83.31
2023-05-10T16:05:45.280Z,83.74
2023-05-10T16:08:40.202Z,83.33
2023-05-10T16:12:18.610Z,82.95
2023-05-10T16:15:10.071Z,83.14
2023-05-10T16:17:38.029Z,82.71
2023-05-10T16:20:07.513Z,82.75
2023-05-10T16:27:39.397Z,82.63
2023-05-10T16:30:47.607Z,82.85
2023-05-10T16:33:37.548Z,82.79
2023-05-10T16:37:03.764Z,82.77
2023-05-10T16:39:45.564Z,82.88
2023-05-10T16:42:15.356Z,82.94
2023-05-10T16:44:42.881Z,82.40
2023-05-10T16:47:19.055Z,82.92
2023-05-10T16:49:46.213Z,82.84
2023-05-10T16:52:14.040Z,83.10
2023-05-10T16:54:41.163Z,82.88
2023-05-10T16:58:11.799Z,83.11
2023-05-10T17:00:49.489Z,82.79
2023-05-10T17:03:41.044Z,82.84
2023-05-10T17:06:31.753Z,82.88
2023-05-10T17:09:02.187Z,82.82
2023-05-10T17:12:09.709Z,83.06
2023-05-10T17:15:17.360Z,83.13
2023-05-10T17:17:44.954Z,83.25
2023-05-10T17:21:06.717Z,82.83
2023-05-10T17:23:47.581Z,82.51
2023-05-10T17:26:25.527Z,82.46
2023-05-10T17:29:02.425Z,81.85
2023-05-10T17:31:49.574Z,82.08
2023-05-10T17:39:55.284Z,82.03
2023-05-10T17:42:32.738Z,82.63
2023-05-10T17:45:38.260Z,81.85
2023-05-10T17:52:20.774Z,82.64
2023-05-10T17:55:21.946Z,82.27
2023-05-10T17:58:19.970Z,83.02
2023-05-10T18:01:03.905Z,82.14
2023-05-10T18:03:36.108Z,82.59
2023-05-10T18:06:04.671Z,82.32
2023-05-10T18:08:31.948Z,82.27
2023-05-10T18:10:59.316Z,82.12
2023-05-10T18:16:45.116Z,82.53
2023-05-10T18:19:12.283Z,82.48
2023-05-10T18:21:55.581Z,82.88
2023-05-10T18:24:47.249Z,82.86
2023-05-10T18:27:14.504Z,83.21
2023-05-10T18:29:45.047Z,82.93
2023-05-10T18:32:12.122Z,83.14
2023-05-10T18:34:39.176Z,83.57
2023-05-10T18:37:28.517Z,83.76
2023-05-10T18:40:24.122Z,83.43
2023-05-10T18:49:45.690Z,83.44
2023-05-10T18:53:45.800Z,84.11
2023-05-10T18:56:13.178Z,84.15
2023-05-10T19:01:58.992Z,84.39
2023-05-10T19:04:26.612Z,84.32
2023-05-10T19:06:57.575Z,84.54
2023-05-10T19:09:27.341Z,84.45
2023-05-10T19:11:55.679Z,84.73
2023-05-10T19:14:24.984Z,84.83
2023-05-10T19:16:53.441Z,85.08
2023-05-10T19:19:21.521Z,84.26
2023-05-10T19:21:49.663Z,84.50
2023-05-10T19:24:20.473Z,84.79
2023-05-10T19:26:49.543Z,84.46
2023-05-10T19:33:25.413Z,85.06
2023-05-10T19:37:01.405Z,84.87
2023-05-10T19:41:14.594Z,84.36
2023-05-10T19:48:08.763Z,84.50
2023-05-10T19:51:57.186Z,84.47
2023-05-10T19:55:25.678Z,85.28
2023-05-10T19:58:43.528Z,84.98
2023-05-10T20:01:24.451Z,84.37
2023-05-10T20:03:52.690Z,84.46
2023-05-10T20:06:20.029Z,84.42
2023-05-10T20:08:51.825Z,84.41
2023-05-10T20:11:27.404Z,84.41
2023-05-10T20:13:56.089Z,84.81
2023-05-10T20:16:27.064Z,85.34
2023-05-10T20:18:58.896Z,84.86
2023-05-10T20:21:26.985Z,85.49
2023-05-10T20:23:54.317Z,85.29
2023-05-10T20:26:22.463Z,85.31
2023-05-10T20:28:51.980Z,85.05
2023-05-10T20:31:20.240Z,85.05
2023-05-10T20:33:48.043Z,85.67
2023-05-10T20:36:15.760Z,84.97
2023-05-10T20:38:43.721Z,85.05
2023-05-10T20:41:11.567Z,85.16
2023-05-10T20:43:39.714Z,85.37
2023-05-10T20:46:08.048Z,85.16
2023-05-10T20:48:36.810Z,85.41
2023-05-10T20:51:06.224Z,85.13
2023-05-10T20:53:34.178Z,85.67
2023-05-10T20:56:02.503Z,85.42
2023-05-10T20:58:29.596Z,85.49
2023-05-10T21:00:57.379Z,85.46
2023-05-10T21:03:24.740Z,85.80
2023-05-10T21:05:51.854Z,85.34
2023-05-10T21:08:45.877Z,85.35
2023-05-10T21:11:16.344Z,85.59
2023-05-10T21:13:43.467Z,85.64
2023-05-10T21:16:11.508Z,85.63
2023-05-10T21:18:40.246Z,85.96
2023-05-10T21:21:07.637Z,85.75
2023-05-10T21:23:35.434Z,85.63
2023-05-10T21:26:07.447Z,85.82
2023-05-10T21:28:40.019Z,85.67
2023-05-10T21:31:13.405Z,85.53
2023-05-10T21:33:45.446Z,85.57
2023-05-10T21:39:45.792Z,86.00
2023-05-10T21:43:14.888Z,85.82
2023-05-10T21:50:02.109Z,86.09
2023-05-10T21:53:22.015Z,86.25
2023-05-10T21:56:27.998Z,85.91
2023-05-10T21:59:22.537Z,86.50
2023-05-10T22:01:50.359Z,86.13
2023-05-10T22:04:20.553Z,86.15
2023-05-10T22:06:50.587Z,86.24
2023-05-10T22:09:47.925Z,86.26
2023-05-10T22:12:37.106Z,86.15
2023-05-10T22:16:00.024Z,86.49
2023-05-10T22:22:19.602Z,87.02
2023-05-10T22:25:50.064Z,87.13
2023-05-10T22:31:56.072Z,86.91
2023-05-10T22:34:55.708Z,86.81
2023-05-10T22:38:05.202Z,87.00
2023-05-10T22:41:07.679Z,87.06
2023-05-10T22:44:04.930Z,87.34
2023-05-10T22:46:33.123Z,87.20
2023-05-10T22:49:00.373Z,86.94
2023-05-10T22:51:27.989Z,87.60
2023-05-10T22:53:55.582Z,87.00
2023-05-10T22:56:22.894Z,87.99
2023-05-10T22:58:51.389Z,87.65
2023-05-10T23:01:18.726Z,87.58
2023-05-10T23:03:46.113Z,87.94
2023-05-10T23:06:30.913Z,87.75
2023-05-10T23:10:05.435Z,87.99
2023-05-10T23:13:26.218Z,87.88
2023-05-10T23:16:37.774Z,87.59
2023-05-10T23:19:21.902Z,88.20
2023-05-10T23:21:49.262Z,88.11
2023-05-10T23:24:16.374Z,88.17
2023-05-10T23:26:45.575Z,88.43
2023-05-10T23:29:12.724Z,88.26
2023-05-10T23:31:45.274Z,88.33
2023-05-10T23:34:12.800Z,87.67
2023-05-10T23:36:39.912Z,87.94
2023-05-10T23:39:08.464Z,87.87
2023-05-10T23:41:35.476Z,87.01
2023-05-10T23:44:02.667Z,87.45
2023-05-10T23:46:29.815Z,87.34
2023-05-10T23:48:56.905Z,86.72
2023-05-10T23:51:24.387Z,87.06
2023-05-10T23:53:51.387Z,86.77
2023-05-10T23:56:18.537Z,86.22
2023-05-10T23:58:46.436Z,87.08
